createdAt,value
2022-11-13T00:01:09.225Z,101132.38
2022-11-13T00:03:56.178Z,101123.84
2022-11-13T00:06:43.177Z,101119.56
2022-11-13T00:09:30.119Z,101111.81
2022-11-13T00:12:17.165Z,101111.81
2022-11-13T00:15:04.486Z,101112.00
2022-11-13T00:17:52.565Z,101112.84
2022-11-13T00:20:39.263Z,101107.72
2022-11-13T00:23:26.236Z,101105.09
2022-11-13T00:26:16.151Z,101102.00
2022-11-13T00:29:04.496Z,101098.56
2022-11-13T00:31:51.301Z,101096.94
2022-11-13T00:34:48.402Z,101096.13
2022-11-13T00:37:35.565Z,101102.59
2022-11-13T00:40:22.262Z,101095.69
2022-11-13T00:43:09.279Z,101088.75
2022-11-13T00:45:56.487Z,101087.13
2022-11-13T00:48:43.159Z,101085.50
2022-11-13T00:51:31.466Z,101097.09
2022-11-13T00:54:18.224Z,101090.16
2022-11-13T00:57:05.507Z,101089.53
2022-11-13T00:59:52.441Z,101096.81
2022-11-13T01:02:39.675Z,101098.66
2022-11-13T01:05:27.484Z,101102.47
2022-11-13T01:08:17.486Z,101099.22
2022-11-13T01:11:11.283Z,101089.03
2022-11-13T01:13:58.542Z,101099.59
2022-11-13T01:16:45.559Z,101108.53
2022-11-13T01:19:32.494Z,101106.06
2022-11-13T01:22:22.208Z,101102.81
2022-11-13T01:25:11.039Z,101095.06
2022-11-13T01:27:58.231Z,101090.81
2022-11-13T01:30:45.276Z,101086.53
2022-11-13T01:33:32.314Z,101090.16
2022-11-13T01:36:22.401Z,101077.97
2022-11-13T01:39:10.744Z,101058.44
2022-11-13T01:41:59.342Z,101079.16
2022-11-13T01:44:52.099Z,101073.06
2022-11-13T01:47:38.811Z,101072.47
2022-11-13T01:50:25.872Z,101064.91
2022-11-13T01:53:13.478Z,101063.91
2022-11-13T01:56:00.577Z,101066.53
2022-11-13T01:58:56.688Z,101061.25
2022-11-13T02:01:43.680Z,101064.91
2022-11-13T02:04:31.503Z,101064.91
2022-11-13T02:07:21.943Z,101070.19
2022-11-13T02:10:10.434Z,101047.44
2022-11-13T02:12:57.691Z,101048.44
2022-11-13T02:15:46.974Z,101053.72
2022-11-13T02:18:35.412Z,101049.44
2022-11-13T02:21:33.976Z,101045.19
2022-11-13T02:24:28.559Z,101046.16
2022-11-13T02:27:22.713Z,101038.25
2022-11-13T02:30:19.741Z,101041.72
2022-11-13T02:33:24.814Z,101033.38
2022-11-13T02:36:14.041Z,101035.00
2022-11-13T02:39:05.528Z,101026.25
2022-11-13T02:41:54.092Z,101027.88
2022-11-13T02:44:41.021Z,101021.81
2022-11-13T02:47:28.475Z,101033.16
2022-11-13T02:50:16.227Z,101013.25
2022-11-13T02:53:03.104Z,101015.72
2022-11-13T02:55:50.179Z,101021.81
2022-11-13T02:58:38.527Z,101017.53
2022-11-13T03:01:25.328Z,101015.88
2022-11-13T03:04:12.220Z,101006.53
2022-11-13T03:06:59.474Z,101012.00
2022-11-13T03:09:46.752Z,101005.25
2022-11-13T03:12:34.639Z,101000.19
2022-11-13T03:15:23.013Z,101005.47
2022-11-13T03:18:11.975Z,100997.91
2022-11-13T03:20:58.642Z,101000.94
2022-11-13T03:23:46.420Z,101004.59
2022-11-13T03:26:33.478Z,101002.97
2022-11-13T03:29:20.527Z,100995.22
2022-11-13T03:32:09.024Z,100994.59
2022-11-13T03:34:56.053Z,100992.34
2022-11-13T03:37:43.094Z,100986.63
2022-11-13T03:40:29.911Z,100989.91
2022-11-13T03:43:17.080Z,100991.91
2022-11-13T03:46:04.125Z,100985.81
2022-11-13T03:48:52.303Z,100992.09
2022-11-13T03:51:39.128Z,100983.34
2022-11-13T03:54:26.082Z,100988.63
2022-11-13T03:57:13.075Z,100981.72
2022-11-13T04:00:00.001Z,100993.28
2022-11-13T04:02:46.940Z,100976.81
2022-11-13T04:05:35.550Z,100989.19
2022-11-13T04:08:22.473Z,100976.22
2022-11-13T04:11:10.500Z,100970.28
2022-11-13T04:13:57.625Z,100972.13
2022-11-13T04:16:44.735Z,100972.31
2022-11-13T04:19:31.910Z,100968.66
2022-11-13T04:22:20.231Z,100970.66
2022-11-13T04:25:08.291Z,100969.03
2022-11-13T04:27:55.483Z,100957.84
2022-11-13T04:30:42.507Z,100964.13
2022-11-13T04:33:29.392Z,100960.88
2022-11-13T04:36:16.468Z,100958.41
2022-11-13T04:39:05.301Z,100944.59
2022-11-13T04:42:09.447Z,100949.88
2022-11-13T04:44:56.460Z,100948.22
2022-11-13T04:47:43.459Z,100949.03
2022-11-13T04:50:31.317Z,100951.88
2022-11-13T04:53:17.854Z,100949.22
2022-11-13T04:56:06.752Z,100944.97
2022-11-13T04:58:54.030Z,100947.78
2022-11-13T05:01:41.127Z,100946.34
2022-11-13T05:04:27.993Z,100932.34
2022-11-13T05:07:15.201Z,100933.16
2022-11-13T05:10:02.316Z,100919.34
2022-11-13T05:12:50.618Z,100931.91
2022-11-13T05:15:37.399Z,100931.28
2022-11-13T05:18:27.341Z,100921.09
2022-11-13T05:21:15.009Z,100912.56
2022-11-13T05:24:02.058Z,100908.28
2022-11-13T05:26:49.045Z,100903.22
2022-11-13T05:29:37.463Z,100902.41
2022-11-13T05:32:24.111Z,100904.59
2022-11-13T05:35:11.371Z,100901.31
2022-11-13T05:38:02.480Z,100899.06
2022-11-13T05:40:49.372Z,100903.50
2022-11-13T05:43:37.525Z,100893.97
2022-11-13T05:46:28.743Z,100902.91
2022-11-13T05:49:15.616Z,100910.97
2022-11-13T05:52:02.296Z,100910.16
2022-11-13T05:54:49.296Z,100898.00
2022-11-13T05:57:36.229Z,100892.28
2022-11-13T06:00:23.283Z,100891.66
2022-11-13T06:03:11.388Z,100892.84
2022-11-13T06:05:59.294Z,100887.31
2022-11-13T06:08:46.884Z,100880.78
2022-11-13T06:11:33.887Z,100869.00
2022-11-13T06:14:20.742Z,100868.34
2022-11-13T06:17:07.599Z,100867.91
2022-11-13T06:19:55.716Z,100863.66
2022-11-13T06:22:42.463Z,100863.00
2022-11-13T06:25:29.838Z,100868.47
2022-11-13T06:28:16.903Z,100863.78
2022-11-13T06:31:05.354Z,100853.25
2022-11-13T06:33:52.585Z,100854.63
2022-11-13T06:36:40.672Z,100861.50
2022-11-13T06:39:27.416Z,100863.50
2022-11-13T06:42:14.789Z,100853.16
2022-11-13T06:45:01.791Z,100854.19
2022-11-13T06:47:48.632Z,100844.16
2022-11-13T06:50:35.819Z,100842.75
2022-11-13T06:53:24.091Z,100844.56
2022-11-13T06:56:11.119Z,100840.47
2022-11-13T06:58:58.287Z,100852.19
2022-11-13T07:01:45.060Z,100841.03
2022-11-13T07:04:32.038Z,100849.94
2022-11-13T07:07:19.146Z,100844.66
2022-11-13T07:10:08.923Z,100842.22
2022-11-13T07:12:55.871Z,100823.97
2022-11-13T07:15:42.895Z,100827.44
2022-11-13T07:18:30.453Z,100840.75
2022-11-13T07:21:17.513Z,100825.97
2022-11-13T07:24:04.723Z,100821.72
2022-11-13T07:26:52.763Z,100838.50
2022-11-13T07:29:40.030Z,100840.31
2022-11-13T07:32:26.752Z,100844.59
2022-11-13T07:35:16.787Z,100837.06
2022-11-13T07:38:03.695Z,100837.88
2022-11-13T07:40:51.174Z,100831.00
2022-11-13T07:43:39.317Z,100832.78
2022-11-13T07:46:26.148Z,100826.72
2022-11-13T07:49:13.192Z,100834.81
2022-11-13T07:52:00.119Z,100820.19
2022-11-13T07:54:47.284Z,100827.28
2022-11-13T07:57:34.493Z,100832.91
2022-11-13T08:00:22.866Z,100826.81
2022-11-13T08:03:12.373Z,100822.56
2022-11-13T08:06:03.101Z,100825.38
2022-11-13T08:08:50.378Z,100814.03
2022-11-13T08:11:37.862Z,100803.50
2022-11-13T08:14:25.209Z,100798.22
2022-11-13T08:17:13.546Z,100812.22
2022-11-13T08:20:00.257Z,100798.06
2022-11-13T08:22:47.222Z,100795.44
2022-11-13T08:25:36.993Z,100787.53
2022-11-13T08:28:23.811Z,100787.53
2022-11-13T08:31:13.756Z,100791.78
2022-11-13T08:34:02.537Z,100797.88
2022-11-13T08:36:52.615Z,100795.69
2022-11-13T08:39:39.440Z,100779.88
2022-11-13T08:42:26.429Z,100776.06
2022-11-13T08:45:13.778Z,100777.69
2022-11-13T08:48:02.339Z,100780.97
2022-11-13T08:50:54.859Z,100777.31
2022-11-13T08:53:41.877Z,100776.31
2022-11-13T08:56:28.856Z,100775.13
2022-11-13T08:59:15.890Z,100765.41
2022-11-13T09:02:02.864Z,100770.31
2022-11-13T09:04:49.712Z,100768.47
2022-11-13T09:07:38.275Z,100764.66
2022-11-13T09:10:25.465Z,100758.38
2022-11-13T09:13:12.537Z,100757.22
2022-11-13T09:16:00.328Z,100758.84
2022-11-13T09:18:50.139Z,100744.84
2022-11-13T09:21:37.113Z,100744.84
2022-11-13T09:24:25.703Z,100749.13
2022-11-13T09:27:12.697Z,100755.19
2022-11-13T09:29:59.699Z,100747.28
2022-11-13T09:32:46.624Z,100741.84
2022-11-13T09:35:37.619Z,100748.38
2022-11-13T09:38:24.615Z,100739.09
2022-11-13T09:41:17.408Z,100726.16
2022-11-13T09:44:07.978Z,100727.38
2022-11-13T09:46:58.834Z,100717.50
2022-11-13T09:49:49.348Z,100710.63
2022-11-13T09:52:39.436Z,100699.72
2022-11-13T09:55:36.152Z,100702.78
2022-11-13T09:58:32.924Z,100697.34
2022-11-13T10:01:28.949Z,100688.84
2022-11-13T10:04:20.866Z,100676.09
2022-11-13T10:07:25.345Z,100664.38
2022-11-13T10:10:33.246Z,100660.34
2022-11-13T10:13:27.024Z,100650.81
2022-11-13T10:16:31.104Z,100641.72
2022-11-13T10:19:35.900Z,100627.16
2022-11-13T10:22:33.346Z,100616.63
2022-11-13T10:25:24.569Z,100614.22
2022-11-13T10:28:48.205Z,100616.06
2022-11-13T10:31:24.129Z,100614.50
2022-11-13T10:34:11.516Z,100613.69
2022-11-13T10:37:23.379Z,100613.97
2022-11-13T10:40:10.658Z,100611.16
2022-11-13T10:43:07.994Z,100617.25
2022-11-13T10:46:00.670Z,100616.25
2022-11-13T10:48:49.227Z,100613.03
2022-11-13T10:51:36.625Z,100591.13
2022-11-13T10:54:27.599Z,100582.41
2022-11-13T10:57:30.441Z,100583.63
2022-11-13T11:00:31.670Z,100582.44
2022-11-13T11:03:21.355Z,100578.78
2022-11-13T11:06:09.808Z,100571.25
2022-11-13T11:09:08.499Z,100578.38
2022-11-13T11:12:22.052Z,100578.16
2022-11-13T11:15:23.756Z,100565.19
2022-11-13T11:18:23.900Z,100560.69
2022-11-13T11:21:16.909Z,100570.66
2022-11-13T11:24:13.184Z,100556.44
2022-11-13T11:27:07.128Z,100560.72
2022-11-13T11:30:04.945Z,100550.97
2022-11-13T11:33:01.945Z,100571.88
2022-11-13T11:35:55.440Z,100562.13
2022-11-13T11:38:53.892Z,100562.13
2022-11-13T11:41:49.965Z,100546.09
2022-11-13T11:44:47.743Z,100534.72
2022-11-13T11:47:35.109Z,100541.63
2022-11-13T11:50:34.722Z,100531.25
2022-11-13T11:53:38.733Z,100535.53
2022-11-13T11:56:33.856Z,100526.81
2022-11-13T11:59:36.167Z,100521.53
2022-11-13T12:03:12.058Z,100515.63
2022-11-13T12:06:10.098Z,100520.91
2022-11-13T12:09:04.956Z,100518.88
2022-11-13T12:12:03.748Z,100508.31
2022-11-13T12:15:04.905Z,100498.56
2022-11-13T12:18:07.270Z,100478.25
2022-11-13T12:21:06.697Z,100478.84
2022-11-13T12:24:20.487Z,100464.03
2022-11-13T12:27:23.532Z,100468.50
2022-11-13T12:30:16.954Z,100461.78
2022-11-13T12:33:20.717Z,100448.00
2022-11-13T12:36:12.279Z,100444.75
2022-11-13T12:39:08.238Z,100421.56
2022-11-13T12:42:01.170Z,100422.81
2022-11-13T12:45:00.632Z,100417.94
2022-11-13T12:47:49.748Z,100408.97
2022-11-13T12:50:37.021Z,100409.38
2022-11-13T12:53:28.353Z,100399.41
2022-11-13T12:56:33.652Z,100390.25
2022-11-13T12:59:34.644Z,100382.94
2022-11-13T13:02:57.951Z,100379.88
2022-11-13T13:06:06.195Z,100370.31
2022-11-13T13:09:06.894Z,100367.03
2022-11-13T13:12:04.301Z,100359.50
2022-11-13T13:15:12.620Z,100356.03
2022-11-13T13:18:13.063Z,100360.28
2022-11-13T13:21:07.473Z,100353.94
2022-11-13T13:23:54.353Z,100359.63
2022-11-13T13:26:48.102Z,100357.97
2022-11-13T13:29:35.451Z,100354.72
2022-11-13T13:32:29.364Z,100352.06
2022-11-13T13:35:23.582Z,100351.22
2022-11-13T13:38:21.659Z,100336.31
2022-11-13T13:41:20.307Z,100332.84
2022-11-13T13:44:39.080Z,100322.63
2022-11-13T13:47:30.192Z,100319.16
2022-11-13T13:50:22.460Z,100320.09
2022-11-13T13:53:14.450Z,100311.53
2022-11-13T13:56:04.094Z,100297.69
2022-11-13T13:58:51.697Z,100299.66
2022-11-13T14:01:38.407Z,100296.38
2022-11-13T14:04:27.632Z,100291.25
2022-11-13T14:07:26.502Z,100288.97
2022-11-13T14:10:20.420Z,100297.28
2022-11-13T14:13:07.341Z,100289.50
2022-11-13T14:16:06.092Z,100292.53
2022-11-13T14:18:52.918Z,100280.69
2022-11-13T14:21:40.172Z,100280.84
2022-11-13T14:24:33.851Z,100273.28
2022-11-13T14:27:24.828Z,100271.00
2022-11-13T14:30:26.357Z,100260.19
2022-11-13T14:33:18.863Z,100253.06
2022-11-13T14:36:07.198Z,100254.81
2022-11-13T14:38:54.176Z,100245.63
2022-11-13T14:41:51.343Z,100243.59
2022-11-13T14:44:38.427Z,100242.56
2022-11-13T14:47:28.590Z,100242.31
2022-11-13T14:50:24.621Z,100237.03
2022-11-13T14:53:12.689Z,100240.72
2022-11-13T14:56:02.637Z,100235.41
2022-11-13T14:58:51.017Z,100236.66
2022-11-13T15:01:37.894Z,100234.81
2022-11-13T15:04:24.786Z,100231.59
2022-11-13T15:07:29.696Z,100239.75
2022-11-13T15:10:19.992Z,100239.19
2022-11-13T15:13:13.339Z,100236.16
2022-11-13T15:16:01.607Z,100227.63
2022-11-13T15:18:52.845Z,100223.59
2022-11-13T15:21:39.781Z,100236.22
2022-11-13T15:24:27.916Z,100240.72
2022-11-13T15:27:17.160Z,100239.31
2022-11-13T15:30:03.957Z,100240.53
2022-11-13T15:32:54.133Z,100233.06
2022-11-13T15:35:42.753Z,100244.66
2022-11-13T15:38:29.538Z,100235.34
2022-11-13T15:41:20.868Z,100232.31
2022-11-13T15:44:14.207Z,100245.75
2022-11-13T15:47:00.986Z,100240.31
2022-11-13T15:50:09.791Z,100234.44
2022-11-13T15:53:00.967Z,100231.84
2022-11-13T15:55:51.265Z,100225.75
2022-11-13T15:58:38.432Z,100220.88
2022-11-13T16:01:25.903Z,100223.16
2022-11-13T16:04:14.966Z,100220.38
2022-11-13T16:07:03.367Z,100235.66
2022-11-13T16:09:50.347Z,100233.66
2022-11-13T16:12:37.850Z,100244.22
2022-11-13T16:15:25.039Z,100243.84
2022-11-13T16:18:21.498Z,100237.38
2022-11-13T16:21:11.418Z,100242.91
2022-11-13T16:24:01.528Z,100236.19
2022-11-13T16:26:52.933Z,100224.63
2022-11-13T16:29:39.812Z,100229.34
2022-11-13T16:32:27.150Z,100220.00
2022-11-13T16:35:15.808Z,100214.94
2022-11-13T16:38:03.551Z,100220.88
2022-11-13T16:40:51.595Z,100239.81
2022-11-13T16:43:38.596Z,100238.19
2022-11-13T16:46:30.875Z,100233.78
2022-11-13T16:49:20.329Z,100217.50
2022-11-13T16:52:07.479Z,100223.78
2022-11-13T16:54:54.626Z,100215.28
2022-11-13T16:57:43.230Z,100211.22
2022-11-13T17:00:30.829Z,100209.81
2022-11-13T17:03:18.032Z,100206.78
2022-11-13T17:06:05.288Z,100199.88
2022-11-13T17:08:52.754Z,100194.22
2022-11-13T17:11:39.750Z,100204.22
2022-11-13T17:14:28.165Z,100209.69
2022-11-13T17:17:15.647Z,100217.25
2022-11-13T17:20:03.017Z,100209.72
2022-11-13T17:22:50.103Z,100214.63
2022-11-13T17:25:37.172Z,100200.84
2022-11-13T17:28:24.242Z,100204.53
2022-11-13T17:31:13.625Z,100194.38
2022-11-13T17:34:00.466Z,100205.13
2022-11-13T17:36:47.515Z,100201.91
2022-11-13T17:39:34.584Z,100206.38
2022-11-13T17:42:21.688Z,100203.94
2022-11-13T17:45:11.069Z,100203.38
2022-11-13T17:48:00.025Z,100204.38
2022-11-13T17:50:57.131Z,100199.72
2022-11-13T17:53:44.370Z,100194.66
2022-11-13T17:56:31.348Z,100197.94
2022-11-13T17:59:18.441Z,100196.31
2022-11-13T18:02:05.534Z,100205.25
2022-11-13T18:04:56.312Z,100196.72
2022-11-13T18:07:43.131Z,100199.78
2022-11-13T18:10:31.735Z,100198.19
2022-11-13T18:13:18.731Z,100197.59
2022-11-13T18:16:07.865Z,100195.38
2022-11-13T18:18:56.590Z,100188.47
2022-11-13T18:21:44.696Z,100186.84
2022-11-13T18:24:31.697Z,100188.06
2022-11-13T18:27:18.696Z,100186.69
2022-11-13T18:30:07.080Z,100181.81
2022-11-13T18:32:54.145Z,100176.75
2022-11-13T18:35:41.174Z,100175.34
2022-11-13T18:38:29.749Z,100174.72
2022-11-13T18:41:19.634Z,100170.91
2022-11-13T18:44:06.727Z,100171.69
2022-11-13T18:46:53.783Z,100165.03
2022-11-13T18:49:40.638Z,100173.16
2022-11-13T18:52:27.839Z,100173.38
2022-11-13T18:55:16.499Z,100178.25
2022-11-13T18:58:03.462Z,100174.19
2022-11-13T19:00:50.431Z,100176.03
2022-11-13T19:03:37.635Z,100174.63
2022-11-13T19:06:25.624Z,100169.56
2022-11-13T19:09:15.006Z,100165.50
2022-11-13T19:12:03.406Z,100164.31
2022-11-13T19:14:50.338Z,100160.84
2022-11-13T19:17:37.771Z,100163.69
2022-11-13T19:20:24.510Z,100156.22
2022-11-13T19:23:11.568Z,100160.66
2022-11-13T19:25:58.589Z,100150.34
2022-11-13T19:28:50.292Z,100150.75
2022-11-13T19:31:37.439Z,100157.03
2022-11-13T19:34:24.287Z,100157.25
2022-11-13T19:37:14.938Z,100151.38
2022-11-13T19:40:05.363Z,100140.44
2022-11-13T19:42:52.757Z,100146.50
2022-11-13T19:45:40.850Z,100142.44
2022-11-13T19:48:27.531Z,100141.06
2022-11-13T19:51:18.065Z,100129.91
2022-11-13T19:54:04.903Z,100136.78
2022-11-13T19:56:51.736Z,100139.66
2022-11-13T19:59:39.527Z,100139.00
2022-11-13T20:02:28.005Z,100142.66
2022-11-13T20:05:15.109Z,100130.50
2022-11-13T20:08:01.845Z,100136.78
2022-11-13T20:10:48.906Z,100144.09
2022-11-13T20:13:36.703Z,100141.69
2022-11-13T20:16:23.585Z,100147.16
2022-11-13T20:19:11.990Z,100141.28
2022-11-13T20:21:59.922Z,100139.66
2022-11-13T20:24:47.008Z,100142.50
2022-11-13T20:27:37.241Z,100140.28
2022-11-13T20:30:24.358Z,100138.84
2022-11-13T20:33:11.357Z,100144.94
2022-11-13T20:35:59.932Z,100145.38
2022-11-13T20:38:51.645Z,100135.22
2022-11-13T20:41:38.646Z,100130.75
2022-11-13T20:44:25.724Z,100124.88
2022-11-13T20:47:12.800Z,100140.09
2022-11-13T20:49:59.659Z,100134.22
2022-11-13T20:52:48.028Z,100137.06
2022-11-13T20:55:34.770Z,100131.19
2022-11-13T20:58:21.672Z,100134.84
2022-11-13T21:01:11.112Z,100135.03
2022-11-13T21:03:59.585Z,100129.97
2022-11-13T21:06:47.245Z,100126.94
2022-11-13T21:09:35.348Z,100131.63
2022-11-13T21:12:22.089Z,100134.47
2022-11-13T21:15:10.143Z,100125.97
2022-11-13T21:17:57.055Z,100130.84
2022-11-13T21:20:44.475Z,100116.00
2022-11-13T21:23:31.610Z,100124.94
2022-11-13T21:26:20.483Z,100125.97
2022-11-13T21:29:07.522Z,100108.53
2022-11-13T21:31:54.452Z,100105.47
2022-11-13T21:34:41.521Z,100106.50
2022-11-13T21:37:28.221Z,100104.09
2022-11-13T21:40:15.594Z,100096.38
2022-11-13T21:43:04.140Z,100086.88
2022-11-13T21:45:50.870Z,100093.34
2022-11-13T21:48:38.072Z,100088.28
2022-11-13T21:51:25.575Z,100088.28
2022-11-13T21:54:12.663Z,100101.66
2022-11-13T21:56:59.604Z,100113.81
2022-11-13T21:59:48.012Z,100093.56
2022-11-13T22:02:34.805Z,100095.38
2022-11-13T22:05:21.735Z,100086.47
2022-11-13T22:08:08.663Z,100099.22
2022-11-13T22:10:55.995Z,100083.66
2022-11-13T22:13:43.615Z,100089.09
2022-11-13T22:16:36.789Z,100077.97
2022-11-13T22:19:27.679Z,100080.00
2022-11-13T22:22:15.382Z,100079.19
2022-11-13T22:25:02.200Z,100066.44
2022-11-13T22:27:49.020Z,100076.97
2022-11-13T22:30:36.072Z,100065.84
2022-11-13T22:33:27.760Z,100071.28
2022-11-13T22:36:17.468Z,100064.63
2022-11-13T22:39:06.047Z,100059.56
2022-11-13T22:41:53.056Z,100057.94
2022-11-13T22:44:55.332Z,100058.97
2022-11-13T22:47:43.697Z,100060.34
2022-11-13T22:50:32.097Z,100056.13
2022-11-13T22:53:19.088Z,100056.13
2022-11-13T22:56:09.310Z,100056.34
2022-11-13T22:58:59.082Z,100054.91
2022-11-13T23:01:46.432Z,100050.66
2022-11-13T23:04:33.236Z,100056.31
2022-11-13T23:07:21.531Z,100060.16
2022-11-13T23:10:11.971Z,100058.16
2022-11-13T23:12:58.966Z,100061.81
2022-11-13T23:15:46.067Z,100068.06
2022-11-13T23:18:33.682Z,100076.97
2022-11-13T23:21:21.337Z,100070.91
2022-11-13T23:24:12.036Z,100074.56
2022-11-13T23:26:58.955Z,100073.53
2022-11-13T23:29:49.895Z,100072.94
2022-11-13T23:32:37.111Z,100072.53
2022-11-13T23:35:24.072Z,100069.72
2022-11-13T23:38:10.923Z,100066.06
2022-11-13T23:41:01.335Z,100073.72
2022-11-13T23:44:07.820Z,100060.16
2022-11-13T23:46:55.128Z,100056.13
2022-11-13T23:49:42.133Z,100060.34
2022-11-13T23:52:29.212Z,100068.06
2022-11-13T23:55:17.333Z,100058.34
2022-11-13T23:58:07.864Z,100061.38
